createdAt,value
2019-01-27T00:01:21.440Z,2.40
2019-01-27T00:03:48.895Z,2.30
2019-01-27T00:06:16.473Z,2.40
2019-01-27T00:08:43.991Z,2.40
2019-01-27T00:11:11.501Z,2.90
2019-01-27T00:13:39.592Z,2.50
2019-01-27T00:16:07.246Z,2.50
2019-01-27T00:18:34.727Z,2.50
2019-01-27T00:21:02.542Z,2.60
2019-01-27T00:23:30.008Z,2.60
2019-01-27T00:25:57.502Z,2.60
2019-01-27T00:28:25.020Z,2.60
2019-01-27T00:30:52.500Z,2.60
2019-01-27T00:33:20.009Z,2.60
2019-01-27T00:35:47.482Z,2.70
2019-01-27T00:38:15.163Z,2.70
2019-01-27T00:40:42.619Z,2.70
2019-01-27T00:43:10.152Z,2.70
2019-01-27T00:45:37.621Z,2.70
2019-01-27T00:48:05.104Z,2.70
2019-01-27T00:50:32.591Z,2.70
2019-01-27T00:53:00.064Z,2.70
2019-01-27T00:55:27.531Z,2.70
2019-01-27T00:57:54.987Z,2.60
2019-01-27T01:00:24.032Z,2.60
2019-01-27T01:02:51.501Z,2.50
2019-01-27T01:05:19.199Z,2.50
2019-01-27T01:07:46.753Z,2.50
2019-01-27T01:10:16.274Z,2.50
2019-01-27T01:12:43.816Z,2.50
2019-01-27T01:15:11.574Z,2.50
2019-01-27T01:17:39.508Z,2.50
2019-01-27T01:20:09.543Z,2.90
2019-01-27T01:22:37.049Z,2.40
2019-01-27T01:25:07.477Z,2.50
2019-01-27T01:27:34.999Z,2.50
2019-01-27T01:30:02.616Z,2.50
2019-01-27T01:32:30.092Z,2.50
2019-01-27T01:34:57.941Z,2.50
2019-01-27T01:37:25.457Z,2.50
2019-01-27T01:39:52.961Z,2.50
2019-01-27T01:42:20.477Z,2.50
2019-01-27T01:44:47.954Z,2.50
2019-01-27T01:47:15.415Z,2.50
2019-01-27T01:49:42.934Z,2.50
2019-01-27T01:52:10.434Z,2.40
2019-01-27T01:54:37.836Z,2.50
2019-01-27T01:57:05.985Z,2.40
2019-01-27T01:59:33.469Z,2.50
2019-01-27T02:02:00.938Z,2.50
2019-01-27T02:04:28.429Z,2.50
2019-01-27T02:06:55.901Z,2.50
2019-01-27T02:09:23.411Z,2.50
2019-01-27T02:11:50.930Z,2.60
2019-01-27T02:14:18.460Z,2.60
2019-01-27T02:16:45.928Z,2.60
2019-01-27T02:19:13.770Z,2.60
2019-01-27T02:21:42.949Z,2.60
2019-01-27T02:24:10.417Z,2.60
2019-01-27T02:26:37.905Z,2.60
2019-01-27T02:29:05.502Z,2.70
2019-01-27T02:31:32.987Z,2.60
2019-01-27T02:34:00.437Z,2.60
2019-01-27T02:36:27.932Z,2.60
2019-01-27T02:38:55.499Z,2.50
2019-01-27T02:41:22.972Z,2.50
2019-01-27T02:43:50.386Z,2.50
2019-01-27T02:46:17.913Z,2.40
2019-01-27T02:48:45.401Z,2.30
2019-01-27T02:51:12.895Z,2.20
2019-01-27T02:53:40.389Z,2.20
2019-01-27T02:56:07.866Z,2.20
2019-01-27T02:58:35.317Z,2.20
2019-01-27T03:01:03.270Z,2.20
2019-01-27T03:03:30.738Z,2.20
2019-01-27T03:06:14.875Z,2.30
2019-01-27T03:08:51.726Z,2.30
2019-01-27T03:11:19.189Z,2.30
2019-01-27T03:13:46.647Z,2.20
2019-01-27T03:16:14.358Z,2.20
2019-01-27T03:18:41.856Z,2.20
2019-01-27T03:21:09.374Z,2.20
2019-01-27T03:23:37.027Z,2.10
2019-01-27T03:26:04.552Z,2.00
2019-01-27T03:28:32.069Z,2.20
2019-01-27T03:30:59.576Z,2.00
2019-01-27T03:33:36.489Z,1.90
2019-01-27T03:36:06.930Z,1.90
2019-01-27T03:38:38.633Z,-0.20
2019-01-27T03:41:07.084Z,3.60
2019-01-27T03:43:34.622Z,2.00
2019-01-27T03:46:02.128Z,2.10
2019-01-27T03:48:29.618Z,2.20
2019-01-27T03:50:57.142Z,1.90
2019-01-27T03:53:24.630Z,1.90
2019-01-27T03:55:52.083Z,1.80
2019-01-27T03:58:19.782Z,1.80
2019-01-27T04:00:47.244Z,1.70
2019-01-27T04:03:14.739Z,1.60
2019-01-27T04:05:42.214Z,1.50
2019-01-27T04:08:09.689Z,1.50
2019-01-27T04:10:37.205Z,1.40
2019-01-27T04:13:04.707Z,1.30
2019-01-27T04:15:32.171Z,1.40
2019-01-27T04:17:59.757Z,1.40
2019-01-27T04:20:27.295Z,3.10
2019-01-27T04:22:54.829Z,1.50
2019-01-27T04:25:22.337Z,-0.20
2019-01-27T04:27:49.825Z,1.40
2019-01-27T04:30:22.893Z,1.40
2019-01-27T04:32:50.508Z,1.40
2019-01-27T04:35:18.074Z,1.40
2019-01-27T04:37:45.545Z,1.50
2019-01-27T04:40:16.110Z,1.40
2019-01-27T04:42:43.601Z,1.40
2019-01-27T04:45:11.878Z,1.30
2019-01-27T04:47:39.670Z,1.40
2019-01-27T04:50:09.916Z,1.40
2019-01-27T04:52:37.421Z,1.40
2019-01-27T04:55:06.180Z,1.40
2019-01-27T04:57:33.636Z,1.40
2019-01-27T05:00:01.165Z,1.30
2019-01-27T05:02:33.365Z,1.30
2019-01-27T05:05:00.867Z,1.30
2019-01-27T05:07:28.335Z,1.30
2019-01-27T05:09:55.854Z,1.30
2019-01-27T05:12:23.357Z,1.30
2019-01-27T05:14:50.849Z,1.30
2019-01-27T05:17:18.366Z,1.30
2019-01-27T05:19:45.849Z,1.30
2019-01-27T05:22:13.368Z,1.40
2019-01-27T05:24:40.834Z,1.50
2019-01-27T05:27:08.323Z,1.50
2019-01-27T05:29:36.182Z,1.50
2019-01-27T05:32:03.784Z,1.60
2019-01-27T05:34:31.265Z,1.60
2019-01-27T05:36:59.363Z,1.60
2019-01-27T05:39:27.143Z,1.60
2019-01-27T05:41:54.783Z,1.60
2019-01-27T05:44:22.278Z,1.60
2019-01-27T05:46:49.833Z,1.60
2019-01-27T05:49:17.305Z,1.60
2019-01-27T05:51:44.893Z,1.60
2019-01-27T05:54:12.396Z,1.70
2019-01-27T05:56:39.900Z,1.70
2019-01-27T05:59:07.369Z,1.60
2019-01-27T06:01:34.859Z,1.60
2019-01-27T06:04:02.243Z,1.50
2019-01-27T06:06:29.803Z,1.40
2019-01-27T06:08:57.284Z,1.40
2019-01-27T06:11:24.746Z,1.30
2019-01-27T06:13:52.244Z,1.20
2019-01-27T06:16:20.115Z,1.20
2019-01-27T06:18:47.583Z,1.20
2019-01-27T06:21:15.062Z,1.30
2019-01-27T06:23:42.709Z,1.40
2019-01-27T06:26:10.217Z,1.40
2019-01-27T06:28:37.732Z,1.50
2019-01-27T06:31:05.222Z,3.50
2019-01-27T06:33:58.309Z,1.60
2019-01-27T06:36:25.842Z,1.70
2019-01-27T06:38:53.339Z,1.70
2019-01-27T06:41:20.938Z,1.70
2019-01-27T06:43:48.466Z,1.70
2019-01-27T06:46:15.919Z,1.70
2019-01-27T06:48:43.388Z,1.70
2019-01-27T06:51:10.871Z,1.70
2019-01-27T06:53:38.315Z,1.80
2019-01-27T06:56:06.024Z,1.80
2019-01-27T06:58:51.632Z,1.90
2019-01-27T07:01:32.198Z,2.00
2019-01-27T07:04:19.110Z,2.10
2019-01-27T07:07:02.501Z,2.00
2019-01-27T07:09:53.403Z,2.00
2019-01-27T07:12:40.464Z,2.10
2019-01-27T07:15:28.385Z,2.10
2019-01-27T07:18:20.938Z,2.20
2019-01-27T07:21:04.045Z,2.20
2019-01-27T07:24:00.556Z,2.20
2019-01-27T07:26:39.355Z,2.20
2019-01-27T07:29:26.366Z,2.20
2019-01-27T07:32:16.242Z,2.30
2019-01-27T07:35:01.719Z,2.40
2019-01-27T07:37:31.732Z,2.40
2019-01-27T07:40:24.448Z,2.40
2019-01-27T07:43:04.179Z,2.50
2019-01-27T07:45:39.697Z,2.60
2019-01-27T07:48:15.623Z,2.70
2019-01-27T07:51:05.639Z,2.70
2019-01-27T07:53:58.270Z,2.80
2019-01-27T07:56:45.245Z,2.80
2019-01-27T07:59:22.064Z,2.90
2019-01-27T08:01:56.108Z,2.90
2019-01-27T08:04:33.071Z,3.00
2019-01-27T08:07:35.318Z,3.10
2019-01-27T08:10:29.405Z,3.30
2019-01-27T08:13:19.643Z,3.50
2019-01-27T08:16:24.963Z,3.70
2019-01-27T08:19:10.325Z,4.00
2019-01-27T08:21:44.550Z,4.30
2019-01-27T08:24:40.449Z,4.40
2019-01-27T08:27:18.898Z,4.60
2019-01-27T08:29:59.351Z,4.70
2019-01-27T08:32:38.890Z,4.70
2019-01-27T08:35:16.253Z,4.70
2019-01-27T08:38:02.305Z,4.80
2019-01-27T08:40:43.717Z,4.90
2019-01-27T08:43:33.661Z,4.90
2019-01-27T08:46:08.548Z,4.90
2019-01-27T08:48:36.036Z,5.00
2019-01-27T08:51:03.746Z,5.00
2019-01-27T08:53:31.226Z,5.00
2019-01-27T08:55:58.690Z,4.90
2019-01-27T08:58:26.230Z,5.00
2019-01-27T09:00:59.785Z,4.90
2019-01-27T09:03:33.141Z,4.80
2019-01-27T09:06:38.233Z,4.70
2019-01-27T09:09:29.770Z,4.70
2019-01-27T09:12:19.509Z,4.70
2019-01-27T09:15:05.075Z,4.70
2019-01-27T09:17:52.186Z,5.20
2019-01-27T09:20:41.251Z,4.70
2019-01-27T09:23:22.744Z,4.80
2019-01-27T09:26:00.099Z,4.80
2019-01-27T09:28:32.053Z,4.90
2019-01-27T09:31:37.222Z,4.90
2019-01-27T09:34:33.457Z,4.90
2019-01-27T09:37:19.145Z,4.90
2019-01-27T09:40:06.095Z,4.90
2019-01-27T09:42:51.988Z,4.80
2019-01-27T09:45:35.638Z,4.70
2019-01-27T09:48:34.868Z,4.70
2019-01-27T09:51:11.390Z,4.70
2019-01-27T09:53:52.768Z,4.70
2019-01-27T09:56:35.195Z,4.70
2019-01-27T09:59:22.254Z,4.70
2019-01-27T10:01:59.542Z,4.60
2019-01-27T10:04:33.187Z,4.60
2019-01-27T10:07:23.395Z,4.50
2019-01-27T10:10:10.565Z,4.50
2019-01-27T10:13:03.609Z,4.40
2019-01-27T10:15:53.351Z,4.40
2019-01-27T10:18:40.417Z,4.40
2019-01-27T10:21:25.364Z,4.40
2019-01-27T10:24:15.109Z,4.40
2019-01-27T10:27:04.884Z,4.40
2019-01-27T10:29:50.407Z,4.40
2019-01-27T10:32:37.662Z,4.30
2019-01-27T10:35:34.157Z,4.30
2019-01-27T10:38:20.456Z,4.30
2019-01-27T10:41:05.614Z,4.30
2019-01-27T10:43:55.654Z,4.30
2019-01-27T10:46:45.437Z,4.30
2019-01-27T10:49:44.798Z,4.30
2019-01-27T10:52:47.000Z,4.30
2019-01-27T10:55:21.147Z,4.30
2019-01-27T10:57:59.712Z,4.20
2019-01-27T11:00:54.065Z,4.20
2019-01-27T11:03:53.337Z,4.20
2019-01-27T11:06:55.355Z,4.20
2019-01-27T11:09:48.352Z,4.20
2019-01-27T11:12:34.057Z,4.30
2019-01-27T11:15:19.635Z,4.30
2019-01-27T11:18:21.925Z,4.40
2019-01-27T11:20:56.748Z,4.40
2019-01-27T11:23:42.632Z,4.40
2019-01-27T11:26:31.185Z,4.40
2019-01-27T11:29:24.391Z,4.50
2019-01-27T11:32:09.731Z,4.50
2019-01-27T11:34:55.638Z,4.60
2019-01-27T11:37:54.493Z,4.60
2019-01-27T11:40:50.954Z,4.60
2019-01-27T11:43:34.298Z,4.50
2019-01-27T11:46:18.917Z,4.50
2019-01-27T11:48:51.108Z,4.60
2019-01-27T11:51:25.605Z,4.60
2019-01-27T11:53:53.096Z,4.70
2019-01-27T11:56:20.581Z,4.70
2019-01-27T11:58:48.167Z,4.70
2019-01-27T12:01:15.667Z,4.80
2019-01-27T12:03:43.163Z,4.70
2019-01-27T12:06:10.676Z,4.90
2019-01-27T12:08:38.207Z,5.00
2019-01-27T12:11:05.751Z,5.10
2019-01-27T12:13:33.356Z,5.20
2019-01-27T12:16:00.874Z,5.30
2019-01-27T12:18:28.393Z,5.40
2019-01-27T12:20:55.860Z,5.50
2019-01-27T12:23:23.336Z,5.50
2019-01-27T12:25:50.829Z,5.60
2019-01-27T12:28:18.320Z,5.70
2019-01-27T12:30:45.799Z,5.80
2019-01-27T12:33:13.291Z,5.80
2019-01-27T12:35:40.770Z,5.80
2019-01-27T12:38:08.337Z,5.80
2019-01-27T12:40:35.858Z,5.80
2019-01-27T12:43:03.514Z,5.80
2019-01-27T12:45:31.103Z,5.90
2019-01-27T12:47:58.649Z,6.00
2019-01-27T12:50:26.110Z,6.10
2019-01-27T12:52:53.606Z,6.10
2019-01-27T12:55:21.111Z,6.20
2019-01-27T12:57:48.699Z,6.30
2019-01-27T13:00:21.851Z,6.30
2019-01-27T13:02:49.319Z,6.40
2019-01-27T13:05:16.797Z,6.60
2019-01-27T13:07:44.339Z,7.20
2019-01-27T13:10:13.247Z,6.80
2019-01-27T13:12:40.736Z,6.80
2019-01-27T13:15:10.060Z,6.80
2019-01-27T13:17:37.571Z,6.80
2019-01-27T13:20:06.728Z,6.80
2019-01-27T13:22:34.274Z,6.70
2019-01-27T13:25:01.808Z,6.80
2019-01-27T13:27:29.325Z,6.90
2019-01-27T13:29:56.860Z,7.00
2019-01-27T13:32:27.415Z,7.00
2019-01-27T13:34:56.334Z,7.10
2019-01-27T13:37:23.842Z,7.20
2019-01-27T13:39:51.338Z,7.10
2019-01-27T13:42:18.821Z,7.10
2019-01-27T13:44:46.329Z,6.80
2019-01-27T13:47:13.872Z,6.80
2019-01-27T13:49:41.342Z,6.80
2019-01-27T13:52:09.064Z,6.60
2019-01-27T13:54:36.571Z,6.60
2019-01-27T13:57:04.274Z,6.70
2019-01-27T13:59:34.549Z,6.90
2019-01-27T14:02:02.071Z,7.30
2019-01-27T14:04:29.608Z,7.10
2019-01-27T14:06:57.055Z,8.00
2019-01-27T14:09:24.543Z,7.00
2019-01-27T14:11:52.001Z,7.00
2019-01-27T14:14:19.483Z,7.00
2019-01-27T14:16:48.305Z,6.90
2019-01-27T14:19:15.898Z,6.80
2019-01-27T14:21:45.685Z,6.70
2019-01-27T14:24:13.251Z,6.60
2019-01-27T14:26:40.760Z,6.50
2019-01-27T14:29:08.260Z,6.40
2019-01-27T14:31:35.731Z,6.20
2019-01-27T14:34:03.483Z,6.20
2019-01-27T14:36:30.983Z,6.10
2019-01-27T14:38:58.470Z,6.00
2019-01-27T14:41:25.958Z,6.00
2019-01-27T14:43:53.443Z,6.00
2019-01-27T14:46:20.935Z,5.90
2019-01-27T14:48:48.459Z,5.80
2019-01-27T14:51:15.938Z,5.90
2019-01-27T14:53:43.432Z,5.80
2019-01-27T14:56:10.933Z,5.70
2019-01-27T14:58:38.412Z,5.70
2019-01-27T15:01:06.004Z,5.60
2019-01-27T15:03:33.554Z,5.60
2019-01-27T15:06:01.034Z,5.60
2019-01-27T15:08:28.545Z,5.50
2019-01-27T15:10:56.073Z,5.50
2019-01-27T15:13:23.538Z,5.50
2019-01-27T15:15:51.023Z,5.50
2019-01-27T15:18:19.837Z,5.40
2019-01-27T15:20:53.929Z,5.40
2019-01-27T15:23:21.450Z,5.30
2019-01-27T15:25:48.932Z,5.30
2019-01-27T15:28:16.471Z,5.30
2019-01-27T15:30:43.964Z,5.30
2019-01-27T15:33:11.496Z,5.20
2019-01-27T15:35:39.009Z,5.20
2019-01-27T15:38:06.691Z,5.20
2019-01-27T15:40:34.143Z,5.20
2019-01-27T15:43:01.663Z,5.10
2019-01-27T15:45:29.379Z,5.00
2019-01-27T15:47:57.117Z,4.90
2019-01-27T15:50:27.294Z,4.90
2019-01-27T15:52:54.777Z,4.80
2019-01-27T15:55:22.270Z,4.80
2019-01-27T15:57:49.778Z,4.80
2019-01-27T16:00:19.942Z,4.70
2019-01-27T16:02:47.459Z,4.60
2019-01-27T16:05:16.865Z,4.60
2019-01-27T16:07:44.356Z,4.50
2019-01-27T16:10:13.374Z,4.50
2019-01-27T16:12:40.891Z,4.50
2019-01-27T16:15:11.066Z,4.50
2019-01-27T16:17:38.866Z,4.50
2019-01-27T16:20:07.724Z,4.50
2019-01-27T16:22:35.193Z,4.50
2019-01-27T16:25:03.361Z,4.50
2019-01-27T16:27:30.875Z,4.50
2019-01-27T16:30:05.575Z,4.60
2019-01-27T16:32:38.788Z,4.60
2019-01-27T16:35:11.791Z,4.60
2019-01-27T16:37:39.303Z,4.60
2019-01-27T16:40:09.906Z,4.50
2019-01-27T16:42:37.449Z,4.50
2019-01-27T16:45:06.906Z,4.50
2019-01-27T16:47:34.406Z,4.40
2019-01-27T16:50:01.900Z,4.30
2019-01-27T16:52:29.461Z,4.20
2019-01-27T16:54:56.934Z,4.10
2019-01-27T16:57:24.422Z,4.00
2019-01-27T16:59:51.966Z,3.90
2019-01-27T17:02:19.447Z,3.90
2019-01-27T17:04:46.917Z,3.80
2019-01-27T17:07:14.441Z,3.80
2019-01-27T17:09:41.938Z,3.70
2019-01-27T17:12:09.468Z,3.70
2019-01-27T17:14:36.943Z,3.60
2019-01-27T17:17:04.436Z,3.60
2019-01-27T17:19:31.945Z,3.50
2019-01-27T17:21:59.449Z,3.60
2019-01-27T17:24:28.175Z,3.60
2019-01-27T17:26:55.790Z,3.60
2019-01-27T17:29:23.266Z,3.90
2019-01-27T17:31:50.805Z,3.80
2019-01-27T17:34:18.596Z,4.00
2019-01-27T17:36:46.072Z,4.00
2019-01-27T17:39:13.560Z,4.00
2019-01-27T17:41:41.205Z,4.00
2019-01-27T17:44:08.689Z,4.00
2019-01-27T17:46:36.244Z,4.00
2019-01-27T17:49:03.939Z,4.10
2019-01-27T17:51:31.481Z,4.00
2019-01-27T17:54:00.582Z,4.00
2019-01-27T17:56:28.156Z,3.90
2019-01-27T17:59:24.254Z,3.90
2019-01-27T18:02:01.108Z,3.80
2019-01-27T18:04:39.579Z,3.60
2019-01-27T18:07:18.138Z,3.50
2019-01-27T18:10:14.427Z,3.40
2019-01-27T18:12:52.768Z,3.40
2019-01-27T18:15:20.229Z,3.40
2019-01-27T18:17:47.757Z,3.40
2019-01-27T18:20:15.861Z,3.80
2019-01-27T18:22:43.351Z,3.30
2019-01-27T18:25:11.824Z,3.40
2019-01-27T18:27:39.332Z,3.40
2019-01-27T18:30:09.988Z,3.50
2019-01-27T18:32:37.446Z,3.50
2019-01-27T18:35:05.307Z,3.40
2019-01-27T18:37:32.818Z,3.40
2019-01-27T18:40:00.332Z,3.50
2019-01-27T18:42:27.802Z,3.30
2019-01-27T18:44:55.329Z,3.20
2019-01-27T18:47:22.907Z,3.20
2019-01-27T18:49:50.412Z,3.60
2019-01-27T18:52:17.891Z,3.30
2019-01-27T18:55:02.136Z,3.20
2019-01-27T18:57:55.276Z,3.30
2019-01-27T19:00:41.515Z,3.20
2019-01-27T19:03:20.403Z,3.20
2019-01-27T19:06:00.696Z,3.20
2019-01-27T19:08:46.552Z,3.10
2019-01-27T19:11:45.861Z,3.00
2019-01-27T19:14:31.834Z,3.10
2019-01-27T19:17:17.818Z,3.00
2019-01-27T19:20:04.826Z,2.90
2019-01-27T19:22:50.680Z,2.90
2019-01-27T19:25:47.347Z,2.90
2019-01-27T19:28:30.517Z,3.00
2019-01-27T19:31:20.313Z,3.00
2019-01-27T19:34:16.539Z,3.10
2019-01-27T19:36:58.546Z,3.10
2019-01-27T19:39:42.338Z,3.20
2019-01-27T19:42:28.153Z,3.30
2019-01-27T19:45:27.326Z,3.30
2019-01-27T19:48:05.175Z,3.30
2019-01-27T19:50:47.011Z,3.30
2019-01-27T19:53:32.915Z,3.40
2019-01-27T19:56:13.275Z,3.50
2019-01-27T19:58:54.083Z,3.80
2019-01-27T20:01:44.112Z,4.00
2019-01-27T20:04:29.526Z,4.10
2019-01-27T20:07:04.655Z,4.10
2019-01-27T20:10:01.000Z,4.10
2019-01-27T20:12:48.652Z,4.10
2019-01-27T20:15:33.800Z,4.10
2019-01-27T20:18:20.612Z,4.10
2019-01-27T20:20:59.905Z,4.10
2019-01-27T20:23:37.533Z,4.20
2019-01-27T20:26:11.506Z,4.60
2019-01-27T20:28:48.752Z,4.30
2019-01-27T20:31:38.683Z,4.50
2019-01-27T20:34:31.745Z,4.50
2019-01-27T20:37:25.205Z,4.50
2019-01-27T20:40:12.142Z,4.70
2019-01-27T20:42:59.149Z,4.70
2019-01-27T20:45:36.632Z,4.70
2019-01-27T20:48:22.226Z,4.80
2019-01-27T20:51:24.572Z,4.80
2019-01-27T20:54:17.593Z,4.90
2019-01-27T20:56:54.797Z,5.00
2019-01-27T20:59:41.797Z,5.10
2019-01-27T21:02:35.334Z,5.10
2019-01-27T21:05:08.747Z,5.20
2019-01-27T21:07:44.782Z,5.40
2019-01-27T21:10:23.289Z,5.40
2019-01-27T21:13:22.718Z,5.40
2019-01-27T21:16:08.424Z,5.50
2019-01-27T21:18:58.670Z,5.50
2019-01-27T21:21:26.190Z,5.50
2019-01-27T21:23:53.669Z,5.60
2019-01-27T21:26:21.228Z,5.60
2019-01-27T21:28:48.757Z,5.60
2019-01-27T21:31:16.238Z,5.60
2019-01-27T21:33:43.755Z,5.70
2019-01-27T21:36:11.321Z,5.70
2019-01-27T21:38:38.799Z,5.70
2019-01-27T21:41:07.242Z,5.70
2019-01-27T21:43:34.748Z,5.70
2019-01-27T21:46:02.249Z,5.70
2019-01-27T21:48:32.932Z,5.70
2019-01-27T21:51:00.464Z,5.60
2019-01-27T21:53:27.963Z,5.60
2019-01-27T21:55:55.468Z,5.60
2019-01-27T21:58:22.939Z,5.60
2019-01-27T22:00:50.553Z,5.50
2019-01-27T22:03:18.026Z,5.50
2019-01-27T22:05:45.499Z,5.60
2019-01-27T22:08:13.024Z,5.50
2019-01-27T22:10:40.514Z,5.40
2019-01-27T22:13:08.000Z,5.40
2019-01-27T22:15:35.528Z,5.40
2019-01-27T22:18:03.105Z,5.40
2019-01-27T22:20:30.597Z,5.40
2019-01-27T22:22:58.074Z,5.40
2019-01-27T22:25:25.579Z,5.40
2019-01-27T22:27:53.038Z,5.30
2019-01-27T22:30:20.548Z,5.30
2019-01-27T22:32:48.067Z,5.30
2019-01-27T22:35:15.595Z,5.30
2019-01-27T22:37:43.118Z,5.20
2019-01-27T22:40:11.494Z,5.20
2019-01-27T22:42:38.983Z,5.10
2019-01-27T22:45:07.360Z,5.00
2019-01-27T22:47:34.866Z,4.90
2019-01-27T22:50:02.339Z,4.80
2019-01-27T22:52:29.819Z,4.80
2019-01-27T22:54:57.315Z,4.80
2019-01-27T22:57:24.764Z,4.70
2019-01-27T22:59:52.273Z,4.80
2019-01-27T23:02:19.805Z,4.80
2019-01-27T23:04:47.246Z,4.80
2019-01-27T23:07:14.737Z,4.80
2019-01-27T23:09:42.203Z,4.80
2019-01-27T23:12:09.909Z,4.80
2019-01-27T23:14:37.392Z,4.80
2019-01-27T23:17:04.836Z,4.80
2019-01-27T23:19:32.321Z,4.80
2019-01-27T23:21:59.778Z,3.00
2019-01-27T23:24:27.269Z,4.80
2019-01-27T23:26:54.746Z,4.80
2019-01-27T23:29:22.239Z,4.80
2019-01-27T23:31:49.755Z,4.80
2019-01-27T23:34:17.295Z,4.80
2019-01-27T23:36:44.814Z,4.80
2019-01-27T23:39:12.258Z,4.80
2019-01-27T23:41:39.856Z,4.70
2019-01-27T23:44:07.348Z,4.80
2019-01-27T23:46:34.913Z,4.70
2019-01-27T23:49:02.452Z,4.70
2019-01-27T23:51:29.921Z,4.70
2019-01-27T23:53:57.373Z,4.70
2019-01-27T23:56:24.861Z,4.60
2019-01-27T23:58:52.357Z,4.60
